PAED METAR and TAF weather

Enter ICAO airport designator
Station Type Date Time Source
PAED METAR 2020/03/28 13:56 UTC NOAA

PAED 281356Z AUTO 36009KT 10SM CLR M07/M13 A2965 RMK AO2 SLP039 T10701127 $


Station Type Date Time Source
PAED Decoded METAR 2020/03/28 13:56 UTC NOAA

Anchorage, Elmendorf Air Force Base, AK, United States (PAED) 61-15-11N 149-47-38W 59M
Mar 28, 2020 - 09:56 AM EDT / 2020.03.28 1356 UTC
Wind: from the N (360 degrees) at 10 MPH (9 KT):0
Visibility: 10 mile(s):0
Sky conditions: clear
Temperature: 19.4 F (-7.0 C)
Windchill: 8 F (-13 C):1
Dew Point: 9.1 F (-12.7 C)
Relative Humidity: 63%
Pressure (altimeter): 29.65 in. Hg (1004 hPa)
ob: PAED 281356Z AUTO 36009KT 10SM CLR M07/M13 A2965 RMK AO2 SLP039 T10701127
cycle: 14

Station Type Date Time Source
PAED TAF 2020/03/28 11:06 UTC NOAA

TAF TAF PAED 281100Z 2811/2917 VRB06KT 9999 BKN050 OVC070 620508 QNH2952INS
BECMG 2820/2821 02012G18KT 9999 SCT050 BKN200 QNH2944INS TXM00/2900Z TNM08/2816Z

Example: see airport list